sensor_id;sensor_type;location;lat;lon;timestamp;P1;durP1;ratioP1;P2;durP2;ratioP2
19396;SDS011;9834;48.076;11.878;2022-12-05T00:01:20;12.27;;;7.43;;
19396;SDS011;9834;48.076;11.878;2022-12-05T00:03:51;15.27;;;9.20;;
19396;SDS011;9834;48.076;11.878;2022-12-05T00:06:19;14.73;;;7.90;;
19396;SDS011;9834;48.076;11.878;2022-12-05T00:08:48;14.30;;;7.73;;
19396;SDS011;9834;48.076;11.878;2022-12-05T00:11:16;9.73;;;6.67;;
19396;SDS011;9834;48.076;11.878;2022-12-05T00:13:45;11.37;;;7.73;;
19396;SDS011;9834;48.076;11.878;2022-12-05T00:16:14;12.03;;;7.67;;
19396;SDS011;9834;48.076;11.878;2022-12-05T00:18:43;13.17;;;7.43;;
19396;SDS011;9834;48.076;11.878;2022-12-05T00:21:12;12.83;;;7.30;;
19396;SDS011;9834;48.076;11.878;2022-12-05T00:23:41;14.07;;;7.53;;
19396;SDS011;9834;48.076;11.878;2022-12-05T00:26:09;15.33;;;7.67;;
19396;SDS011;9834;48.076;11.878;2022-12-05T00:28:37;11.10;;;6.83;;
19396;SDS011;9834;48.076;11.878;2022-12-05T00:31:05;15.00;;;7.60;;
19396;SDS011;9834;48.076;11.878;2022-12-05T00:33:33;11.87;;;7.03;;
19396;SDS011;9834;48.076;11.878;2022-12-05T00:36:01;10.57;;;6.67;;
19396;SDS011;9834;48.076;11.878;2022-12-05T00:38:28;10.67;;;6.83;;
19396;SDS011;9834;48.076;11.878;2022-12-05T00:40:55;10.50;;;7.00;;
19396;SDS011;9834;48.076;11.878;2022-12-05T00:43:23;12.30;;;7.10;;
19396;SDS011;9834;48.076;11.878;2022-12-05T00:45:50;11.50;;;7.70;;
19396;SDS011;9834;48.076;11.878;2022-12-05T00:48:17;12.73;;;8.13;;
19396;SDS011;9834;48.076;11.878;2022-12-05T00:50:44;10.10;;;6.97;;
19396;SDS011;9834;48.076;11.878;2022-12-05T00:53:11;12.67;;;7.40;;
19396;SDS011;9834;48.076;11.878;2022-12-05T00:55:38;14.13;;;7.20;;
19396;SDS011;9834;48.076;11.878;2022-12-05T00:58:05;14.17;;;7.70;;
19396;SDS011;9834;48.076;11.878;2022-12-05T01:00:33;10.70;;;7.27;;
19396;SDS011;9834;48.076;11.878;2022-12-05T01:03:00;10.97;;;6.23;;
19396;SDS011;9834;48.076;11.878;2022-12-05T01:05:27;10.00;;;7.13;;
19396;SDS011;9834;48.076;11.878;2022-12-05T01:07:54;10.77;;;6.87;;
19396;SDS011;9834;48.076;11.878;2022-12-05T01:10:20;9.40;;;5.87;;
19396;SDS011;9834;48.076;11.878;2022-12-05T01:12:47;10.77;;;5.97;;
19396;SDS011;9834;48.076;11.878;2022-12-05T01:15:14;11.37;;;7.40;;
19396;SDS011;9834;48.076;11.878;2022-12-05T01:17:43;12.23;;;7.57;;
19396;SDS011;9834;48.076;11.878;2022-12-05T01:20:10;10.93;;;7.10;;
19396;SDS011;9834;48.076;11.878;2022-12-05T01:22:37;10.10;;;6.13;;
19396;SDS011;9834;48.076;11.878;2022-12-05T01:25:04;10.90;;;6.50;;
19396;SDS011;9834;48.076;11.878;2022-12-05T01:27:32;10.10;;;6.60;;
19396;SDS011;9834;48.076;11.878;2022-12-05T01:29:59;11.03;;;7.23;;
19396;SDS011;9834;48.076;11.878;2022-12-05T01:32:26;10.63;;;6.37;;
19396;SDS011;9834;48.076;11.878;2022-12-05T01:34:54;9.37;;;6.23;;
19396;SDS011;9834;48.076;11.878;2022-12-05T01:37:21;16.90;;;6.50;;
19396;SDS011;9834;48.076;11.878;2022-12-05T01:39:48;10.03;;;7.17;;
19396;SDS011;9834;48.076;11.878;2022-12-05T01:42:15;10.50;;;6.77;;
19396;SDS011;9834;48.076;11.878;2022-12-05T01:44:58;12.13;;;6.70;;
19396;SDS011;9834;48.076;11.878;2022-12-05T01:47:28;9.07;;;5.77;;
19396;SDS011;9834;48.076;11.878;2022-12-05T01:49:58;10.60;;;6.33;;
19396;SDS011;9834;48.076;11.878;2022-12-05T01:52:26;21.43;;;7.33;;
19396;SDS011;9834;48.076;11.878;2022-12-05T01:54:56;10.80;;;6.30;;
19396;SDS011;9834;48.076;11.878;2022-12-05T01:57:25;12.90;;;7.33;;
19396;SDS011;9834;48.076;11.878;2022-12-05T01:59:53;10.60;;;6.03;;
19396;SDS011;9834;48.076;11.878;2022-12-05T02:02:23;10.07;;;7.30;;
19396;SDS011;9834;48.076;11.878;2022-12-05T02:04:53;18.47;;;7.23;;
19396;SDS011;9834;48.076;11.878;2022-12-05T02:07:26;10.60;;;6.93;;
19396;SDS011;9834;48.076;11.878;2022-12-05T02:09:53;13.20;;;7.33;;
19396;SDS011;9834;48.076;11.878;2022-12-05T02:12:20;14.97;;;7.17;;
19396;SDS011;9834;48.076;11.878;2022-12-05T02:14:50;15.07;;;7.60;;
19396;SDS011;9834;48.076;11.878;2022-12-05T02:17:34;11.23;;;7.00;;
19396;SDS011;9834;48.076;11.878;2022-12-05T02:20:13;10.97;;;6.87;;
19396;SDS011;9834;48.076;11.878;2022-12-05T02:26:17;12.97;;;8.07;;
19396;SDS011;9834;48.076;11.878;2022-12-05T02:29:13;13.23;;;7.47;;
19396;SDS011;9834;48.076;11.878;2022-12-05T02:32:17;16.87;;;6.77;;
19396;SDS011;9834;48.076;11.878;2022-12-05T02:34:54;10.27;;;7.00;;
19396;SDS011;9834;48.076;11.878;2022-12-05T02:37:26;13.77;;;7.70;;
19396;SDS011;9834;48.076;11.878;2022-12-05T02:39:57;13.10;;;7.60;;
19396;SDS011;9834;48.076;11.878;2022-12-05T02:42:31;11.40;;;7.80;;
19396;SDS011;9834;48.076;11.878;2022-12-05T02:45:03;11.90;;;7.97;;
19396;SDS011;9834;48.076;11.878;2022-12-05T02:47:35;12.50;;;7.30;;
19396;SDS011;9834;48.076;11.878;2022-12-05T02:50:06;11.80;;;7.17;;
19396;SDS011;9834;48.076;11.878;2022-12-05T02:52:37;9.37;;;7.00;;
19396;SDS011;9834;48.076;11.878;2022-12-05T02:55:05;10.73;;;6.73;;
19396;SDS011;9834;48.076;11.878;2022-12-05T02:57:34;17.23;;;8.27;;
19396;SDS011;9834;48.076;11.878;2022-12-05T03:00:02;14.30;;;7.90;;
19396;SDS011;9834;48.076;11.878;2022-12-05T03:02:31;17.70;;;9.10;;
19396;SDS011;9834;48.076;11.878;2022-12-05T03:05:03;18.73;;;9.10;;
19396;SDS011;9834;48.076;11.878;2022-12-05T03:07:39;14.80;;;8.40;;
19396;SDS011;9834;48.076;11.878;2022-12-05T03:10:10;13.87;;;9.00;;
19396;SDS011;9834;48.076;11.878;2022-12-05T03:12:40;16.53;;;9.33;;
19396;SDS011;9834;48.076;11.878;2022-12-05T03:15:14;16.80;;;8.27;;
19396;SDS011;9834;48.076;11.878;2022-12-05T03:17:45;15.13;;;9.40;;
19396;SDS011;9834;48.076;11.878;2022-12-05T03:20:20;15.20;;;9.00;;
19396;SDS011;9834;48.076;11.878;2022-12-05T03:22:53;17.33;;;9.07;;
19396;SDS011;9834;48.076;11.878;2022-12-05T03:25:28;15.23;;;9.97;;
19396;SDS011;9834;48.076;11.878;2022-12-05T03:28:02;14.73;;;8.77;;
19396;SDS011;9834;48.076;11.878;2022-12-05T03:30:37;18.87;;;9.70;;
19396;SDS011;9834;48.076;11.878;2022-12-05T03:33:04;17.97;;;10.23;;
19396;SDS011;9834;48.076;11.878;2022-12-05T03:35:39;18.20;;;10.70;;
19396;SDS011;9834;48.076;11.878;2022-12-05T03:38:11;14.70;;;9.87;;
19396;SDS011;9834;48.076;11.878;2022-12-05T03:40:41;19.40;;;10.63;;
19396;SDS011;9834;48.076;11.878;2022-12-05T03:43:13;17.73;;;9.83;;
19396;SDS011;9834;48.076;11.878;2022-12-05T03:45:48;18.97;;;9.73;;
19396;SDS011;9834;48.076;11.878;2022-12-05T03:48:20;18.90;;;10.67;;
19396;SDS011;9834;48.076;11.878;2022-12-05T03:50:54;19.90;;;10.77;;
19396;SDS011;9834;48.076;11.878;2022-12-05T03:53:23;16.07;;;10.27;;
19396;SDS011;9834;48.076;11.878;2022-12-05T03:55:58;19.70;;;9.50;;
19396;SDS011;9834;48.076;11.878;2022-12-05T03:58:30;18.60;;;10.20;;
19396;SDS011;9834;48.076;11.878;2022-12-05T04:01:03;21.67;;;11.27;;
19396;SDS011;9834;48.076;11.878;2022-12-05T04:03:32;19.07;;;11.27;;
19396;SDS011;9834;48.076;11.878;2022-12-05T04:06:07;19.83;;;10.00;;
19396;SDS011;9834;48.076;11.878;2022-12-05T04:08:39;19.63;;;11.10;;
19396;SDS011;9834;48.076;11.878;2022-12-05T04:11:13;26.67;;;11.63;;
19396;SDS011;9834;48.076;11.878;2022-12-05T04:13:43;25.10;;;11.93;;
19396;SDS011;9834;48.076;11.878;2022-12-05T04:16:14;22.47;;;11.27;;
19396;SDS011;9834;48.076;11.878;2022-12-05T04:19:04;19.13;;;11.50;;
19396;SDS011;9834;48.076;11.878;2022-12-05T04:21:37;18.60;;;12.43;;
19396;SDS011;9834;48.076;11.878;2022-12-05T04:24:08;24.90;;;12.73;;
19396;SDS011;9834;48.076;11.878;2022-12-05T04:27:00;21.47;;;12.13;;
19396;SDS011;9834;48.076;11.878;2022-12-05T04:29:36;22.13;;;11.73;;
19396;SDS011;9834;48.076;11.878;2022-12-05T04:32:10;20.43;;;11.43;;
19396;SDS011;9834;48.076;11.878;2022-12-05T04:34:39;27.27;;;12.43;;
19396;SDS011;9834;48.076;11.878;2022-12-05T04:37:13;20.20;;;11.63;;
19396;SDS011;9834;48.076;11.878;2022-12-05T04:39:45;23.50;;;10.53;;
19396;SDS011;9834;48.076;11.878;2022-12-05T04:42:15;22.47;;;12.40;;
19396;SDS011;9834;48.076;11.878;2022-12-05T04:44:48;19.47;;;11.80;;
19396;SDS011;9834;48.076;11.878;2022-12-05T04:47:18;21.70;;;11.67;;
19396;SDS011;9834;48.076;11.878;2022-12-05T04:49:47;20.43;;;12.40;;
19396;SDS011;9834;48.076;11.878;2022-12-05T04:52:15;18.60;;;11.53;;
19396;SDS011;9834;48.076;11.878;2022-12-05T04:54:44;21.77;;;11.63;;
19396;SDS011;9834;48.076;11.878;2022-12-05T04:57:15;22.27;;;10.90;;
19396;SDS011;9834;48.076;11.878;2022-12-05T04:59:46;26.20;;;12.57;;
19396;SDS011;9834;48.076;11.878;2022-12-05T05:02:17;21.27;;;11.30;;
19396;SDS011;9834;48.076;11.878;2022-12-05T05:04:47;17.57;;;11.40;;
19396;SDS011;9834;48.076;11.878;2022-12-05T05:07:19;22.70;;;11.50;;
19396;SDS011;9834;48.076;11.878;2022-12-05T05:09:46;18.27;;;10.93;;
19396;SDS011;9834;48.076;11.878;2022-12-05T05:12:13;20.77;;;11.10;;
19396;SDS011;9834;48.076;11.878;2022-12-05T05:14:40;22.10;;;10.57;;
19396;SDS011;9834;48.076;11.878;2022-12-05T05:17:07;19.17;;;11.20;;
19396;SDS011;9834;48.076;11.878;2022-12-05T05:19:34;19.03;;;10.27;;
19396;SDS011;9834;48.076;11.878;2022-12-05T05:22:01;18.13;;;10.13;;
19396;SDS011;9834;48.076;11.878;2022-12-05T05:24:29;23.23;;;11.10;;
19396;SDS011;9834;48.076;11.878;2022-12-05T05:26:56;17.43;;;10.20;;
19396;SDS011;9834;48.076;11.878;2022-12-05T05:29:23;18.67;;;11.20;;
19396;SDS011;9834;48.076;11.878;2022-12-05T05:31:50;19.27;;;10.07;;
19396;SDS011;9834;48.076;11.878;2022-12-05T05:34:17;19.93;;;11.93;;
19396;SDS011;9834;48.076;11.878;2022-12-05T05:36:44;18.37;;;10.17;;
19396;SDS011;9834;48.076;11.878;2022-12-05T05:39:11;15.10;;;9.57;;
19396;SDS011;9834;48.076;11.878;2022-12-05T05:41:42;17.63;;;10.27;;
19396;SDS011;9834;48.076;11.878;2022-12-05T05:44:09;14.03;;;9.37;;
19396;SDS011;9834;48.076;11.878;2022-12-05T05:46:36;16.13;;;9.27;;
19396;SDS011;9834;48.076;11.878;2022-12-05T05:49:04;19.50;;;10.17;;
19396;SDS011;9834;48.076;11.878;2022-12-05T05:51:31;13.63;;;9.00;;
19396;SDS011;9834;48.076;11.878;2022-12-05T05:53:59;15.23;;;9.93;;
19396;SDS011;9834;48.076;11.878;2022-12-05T05:56:26;16.53;;;8.60;;
19396;SDS011;9834;48.076;11.878;2022-12-05T05:58:56;15.50;;;8.80;;
19396;SDS011;9834;48.076;11.878;2022-12-05T06:01:23;16.97;;;9.63;;
19396;SDS011;9834;48.076;11.878;2022-12-05T06:03:51;18.57;;;9.13;;
19396;SDS011;9834;48.076;11.878;2022-12-05T06:06:18;11.33;;;7.83;;
19396;SDS011;9834;48.076;11.878;2022-12-05T06:08:45;13.00;;;7.97;;
19396;SDS011;9834;48.076;11.878;2022-12-05T06:11:13;18.50;;;8.37;;
19396;SDS011;9834;48.076;11.878;2022-12-05T06:13:42;12.87;;;8.93;;
19396;SDS011;9834;48.076;11.878;2022-12-05T06:16:11;13.23;;;8.37;;
19396;SDS011;9834;48.076;11.878;2022-12-05T06:18:40;16.93;;;9.23;;
19396;SDS011;9834;48.076;11.878;2022-12-05T06:21:07;18.23;;;9.87;;
19396;SDS011;9834;48.076;11.878;2022-12-05T06:23:35;14.27;;;8.17;;
19396;SDS011;9834;48.076;11.878;2022-12-05T06:26:03;16.23;;;9.00;;
19396;SDS011;9834;48.076;11.878;2022-12-05T06:28:31;13.47;;;8.93;;
19396;SDS011;9834;48.076;11.878;2022-12-05T06:30:58;14.80;;;9.47;;
19396;SDS011;9834;48.076;11.878;2022-12-05T06:33:27;14.10;;;8.97;;
19396;SDS011;9834;48.076;11.878;2022-12-05T06:36:00;18.60;;;9.03;;
19396;SDS011;9834;48.076;11.878;2022-12-05T06:38:28;12.23;;;9.00;;
19396;SDS011;9834;48.076;11.878;2022-12-05T06:40:55;18.03;;;9.77;;
19396;SDS011;9834;48.076;11.878;2022-12-05T06:43:22;12.93;;;8.63;;
19396;SDS011;9834;48.076;11.878;2022-12-05T06:45:49;19.30;;;10.03;;
19396;SDS011;9834;48.076;11.878;2022-12-05T06:48:16;10.40;;;7.30;;
19396;SDS011;9834;48.076;11.878;2022-12-05T06:50:48;11.00;;;7.57;;
19396;SDS011;9834;48.076;11.878;2022-12-05T06:53:16;14.27;;;8.07;;
19396;SDS011;9834;48.076;11.878;2022-12-05T06:55:43;10.57;;;8.17;;
19396;SDS011;9834;48.076;11.878;2022-12-05T06:58:10;16.27;;;9.13;;
19396;SDS011;9834;48.076;11.878;2022-12-05T07:00:37;18.57;;;9.30;;
19396;SDS011;9834;48.076;11.878;2022-12-05T07:03:21;16.60;;;8.17;;
19396;SDS011;9834;48.076;11.878;2022-12-05T07:05:49;13.20;;;8.10;;
19396;SDS011;9834;48.076;11.878;2022-12-05T07:08:16;13.70;;;8.50;;
19396;SDS011;9834;48.076;11.878;2022-12-05T07:10:49;17.93;;;10.40;;
19396;SDS011;9834;48.076;11.878;2022-12-05T07:13:17;16.97;;;10.20;;
19396;SDS011;9834;48.076;11.878;2022-12-05T07:15:45;14.33;;;9.50;;
19396;SDS011;9834;48.076;11.878;2022-12-05T07:18:13;13.50;;;9.40;;
19396;SDS011;9834;48.076;11.878;2022-12-05T07:20:41;14.77;;;8.33;;
19396;SDS011;9834;48.076;11.878;2022-12-05T07:23:10;12.87;;;8.80;;
19396;SDS011;9834;48.076;11.878;2022-12-05T07:25:38;14.10;;;10.03;;
19396;SDS011;9834;48.076;11.878;2022-12-05T07:28:05;13.43;;;8.93;;
19396;SDS011;9834;48.076;11.878;2022-12-05T07:30:32;15.73;;;8.70;;
19396;SDS011;9834;48.076;11.878;2022-12-05T07:32:59;15.03;;;7.70;;
19396;SDS011;9834;48.076;11.878;2022-12-05T07:35:26;16.83;;;7.83;;
19396;SDS011;9834;48.076;11.878;2022-12-05T07:37:53;14.33;;;9.30;;
19396;SDS011;9834;48.076;11.878;2022-12-05T07:40:22;15.03;;;8.70;;
19396;SDS011;9834;48.076;11.878;2022-12-05T07:42:49;15.43;;;9.67;;
19396;SDS011;9834;48.076;11.878;2022-12-05T07:45:17;13.37;;;9.57;;
19396;SDS011;9834;48.076;11.878;2022-12-05T07:47:44;16.73;;;9.33;;
19396;SDS011;9834;48.076;11.878;2022-12-05T07:50:11;15.67;;;9.57;;
19396;SDS011;9834;48.076;11.878;2022-12-05T07:52:39;20.50;;;10.00;;
19396;SDS011;9834;48.076;11.878;2022-12-05T07:55:06;18.07;;;10.97;;
19396;SDS011;9834;48.076;11.878;2022-12-05T07:57:35;16.53;;;9.67;;
19396;SDS011;9834;48.076;11.878;2022-12-05T08:00:02;16.33;;;9.97;;
19396;SDS011;9834;48.076;11.878;2022-12-05T08:02:30;16.70;;;9.53;;
19396;SDS011;9834;48.076;11.878;2022-12-05T08:04:58;16.23;;;9.87;;
19396;SDS011;9834;48.076;11.878;2022-12-05T08:07:25;17.40;;;9.60;;
19396;SDS011;9834;48.076;11.878;2022-12-05T08:09:52;17.83;;;10.17;;
19396;SDS011;9834;48.076;11.878;2022-12-05T08:12:19;17.73;;;9.23;;
19396;SDS011;9834;48.076;11.878;2022-12-05T08:14:47;19.43;;;8.87;;
19396;SDS011;9834;48.076;11.878;2022-12-05T08:17:14;12.90;;;8.90;;
19396;SDS011;9834;48.076;11.878;2022-12-05T08:19:42;10.97;;;7.43;;
19396;SDS011;9834;48.076;11.878;2022-12-05T08:22:09;12.70;;;7.60;;
19396;SDS011;9834;48.076;11.878;2022-12-05T08:24:36;11.90;;;8.07;;
19396;SDS011;9834;48.076;11.878;2022-12-05T08:27:03;14.53;;;8.77;;
19396;SDS011;9834;48.076;11.878;2022-12-05T08:29:30;14.00;;;8.20;;
19396;SDS011;9834;48.076;11.878;2022-12-05T08:31:59;16.27;;;8.23;;
19396;SDS011;9834;48.076;11.878;2022-12-05T08:34:26;19.60;;;9.97;;
19396;SDS011;9834;48.076;11.878;2022-12-05T08:36:53;12.03;;;7.97;;
19396;SDS011;9834;48.076;11.878;2022-12-05T08:39:20;10.23;;;6.97;;
19396;SDS011;9834;48.076;11.878;2022-12-05T08:41:47;11.90;;;8.30;;
19396;SDS011;9834;48.076;11.878;2022-12-05T08:44:14;14.53;;;8.63;;
19396;SDS011;9834;48.076;11.878;2022-12-05T08:46:42;11.93;;;7.10;;
19396;SDS011;9834;48.076;11.878;2022-12-05T08:49:12;16.10;;;9.00;;
19396;SDS011;9834;48.076;11.878;2022-12-05T08:51:40;14.70;;;8.77;;
19396;SDS011;9834;48.076;11.878;2022-12-05T08:54:08;19.07;;;10.97;;
19396;SDS011;9834;48.076;11.878;2022-12-05T08:56:35;18.40;;;11.83;;
19396;SDS011;9834;48.076;11.878;2022-12-05T08:59:02;18.60;;;9.97;;
19396;SDS011;9834;48.076;11.878;2022-12-05T09:01:29;14.70;;;9.70;;
19396;SDS011;9834;48.076;11.878;2022-12-05T09:03:57;11.97;;;9.20;;
19396;SDS011;9834;48.076;11.878;2022-12-05T09:06:27;13.83;;;9.60;;
19396;SDS011;9834;48.076;11.878;2022-12-05T09:08:55;16.87;;;9.70;;
19396;SDS011;9834;48.076;11.878;2022-12-05T09:11:24;15.93;;;9.10;;
19396;SDS011;9834;48.076;11.878;2022-12-05T09:13:53;17.07;;;9.67;;
19396;SDS011;9834;48.076;11.878;2022-12-05T09:16:22;13.87;;;8.67;;
19396;SDS011;9834;48.076;11.878;2022-12-05T09:18:50;16.90;;;8.93;;
19396;SDS011;9834;48.076;11.878;2022-12-05T09:21:19;14.63;;;8.63;;
19396;SDS011;9834;48.076;11.878;2022-12-05T09:23:49;12.90;;;9.13;;
19396;SDS011;9834;48.076;11.878;2022-12-05T09:26:17;15.43;;;8.97;;
19396;SDS011;9834;48.076;11.878;2022-12-05T09:28:46;13.70;;;8.33;;
19396;SDS011;9834;48.076;11.878;2022-12-05T09:31:13;10.73;;;7.27;;
19396;SDS011;9834;48.076;11.878;2022-12-05T09:33:47;14.73;;;9.00;;
19396;SDS011;9834;48.076;11.878;2022-12-05T09:36:16;14.33;;;7.57;;
19396;SDS011;9834;48.076;11.878;2022-12-05T09:38:44;12.17;;;7.40;;
19396;SDS011;9834;48.076;11.878;2022-12-05T09:41:22;13.97;;;7.80;;
19396;SDS011;9834;48.076;11.878;2022-12-05T09:44:16;11.87;;;7.57;;
19396;SDS011;9834;48.076;11.878;2022-12-05T09:46:49;12.07;;;8.03;;
19396;SDS011;9834;48.076;11.878;2022-12-05T09:49:20;14.43;;;7.77;;
19396;SDS011;9834;48.076;11.878;2022-12-05T09:51:49;12.33;;;7.97;;
19396;SDS011;9834;48.076;11.878;2022-12-05T09:54:19;10.57;;;7.47;;
19396;SDS011;9834;48.076;11.878;2022-12-05T09:56:49;8.43;;;6.40;;
19396;SDS011;9834;48.076;11.878;2022-12-05T09:59:18;10.63;;;7.17;;
19396;SDS011;9834;48.076;11.878;2022-12-05T10:01:48;12.40;;;7.53;;
19396;SDS011;9834;48.076;11.878;2022-12-05T10:04:28;10.47;;;7.43;;
19396;SDS011;9834;48.076;11.878;2022-12-05T10:07:11;8.80;;;6.57;;
19396;SDS011;9834;48.076;11.878;2022-12-05T10:09:47;10.97;;;6.93;;
19396;SDS011;9834;48.076;11.878;2022-12-05T10:12:27;12.33;;;7.93;;
19396;SDS011;9834;48.076;11.878;2022-12-05T10:15:16;13.40;;;8.20;;
19396;SDS011;9834;48.076;11.878;2022-12-05T10:17:51;9.87;;;7.10;;
19396;SDS011;9834;48.076;11.878;2022-12-05T10:20:24;12.63;;;7.70;;
19396;SDS011;9834;48.076;11.878;2022-12-05T10:22:54;12.03;;;7.50;;
19396;SDS011;9834;48.076;11.878;2022-12-05T10:25:25;10.37;;;6.70;;
19396;SDS011;9834;48.076;11.878;2022-12-05T10:27:55;8.70;;;6.30;;
19396;SDS011;9834;48.076;11.878;2022-12-05T10:30:25;12.03;;;6.50;;
19396;SDS011;9834;48.076;11.878;2022-12-05T10:32:55;6.33;;;5.63;;
19396;SDS011;9834;48.076;11.878;2022-12-05T10:35:24;10.53;;;7.17;;
19396;SDS011;9834;48.076;11.878;2022-12-05T10:37:53;10.47;;;6.70;;
19396;SDS011;9834;48.076;11.878;2022-12-05T10:40:22;7.27;;;6.00;;
19396;SDS011;9834;48.076;11.878;2022-12-05T10:42:52;9.47;;;6.57;;
19396;SDS011;9834;48.076;11.878;2022-12-05T10:45:21;6.83;;;5.43;;
19396;SDS011;9834;48.076;11.878;2022-12-05T10:47:49;7.20;;;5.73;;
19396;SDS011;9834;48.076;11.878;2022-12-05T10:50:22;14.93;;;9.53;;
19396;SDS011;9834;48.076;11.878;2022-12-05T10:52:54;9.87;;;7.33;;
19396;SDS011;9834;48.076;11.878;2022-12-05T10:55:22;12.53;;;7.57;;
19396;SDS011;9834;48.076;11.878;2022-12-05T10:58:07;8.47;;;6.10;;
19396;SDS011;9834;48.076;11.878;2022-12-05T11:00:37;9.07;;;6.13;;
19396;SDS011;9834;48.076;11.878;2022-12-05T11:03:19;9.60;;;6.97;;
19396;SDS011;9834;48.076;11.878;2022-12-05T11:05:50;13.20;;;6.83;;
19396;SDS011;9834;48.076;11.878;2022-12-05T11:08:22;8.80;;;5.90;;
19396;SDS011;9834;48.076;11.878;2022-12-05T11:10:59;8.63;;;6.67;;
19396;SDS011;9834;48.076;11.878;2022-12-05T11:13:28;6.77;;;6.07;;
19396;SDS011;9834;48.076;11.878;2022-12-05T11:15:56;8.80;;;6.33;;
19396;SDS011;9834;48.076;11.878;2022-12-05T11:18:28;9.50;;;6.97;;
19396;SDS011;9834;48.076;11.878;2022-12-05T11:21:08;10.93;;;6.30;;
19396;SDS011;9834;48.076;11.878;2022-12-05T11:23:36;11.13;;;6.67;;
19396;SDS011;9834;48.076;11.878;2022-12-05T11:26:05;8.57;;;6.17;;
19396;SDS011;9834;48.076;11.878;2022-12-05T11:28:43;12.30;;;6.40;;
19396;SDS011;9834;48.076;11.878;2022-12-05T11:31:21;8.80;;;5.93;;
19396;SDS011;9834;48.076;11.878;2022-12-05T11:33:59;13.27;;;6.90;;
19396;SDS011;9834;48.076;11.878;2022-12-05T11:36:32;15.50;;;9.40;;
19396;SDS011;9834;48.076;11.878;2022-12-05T11:39:05;11.90;;;6.50;;
19396;SDS011;9834;48.076;11.878;2022-12-05T11:41:37;12.30;;;7.87;;
19396;SDS011;9834;48.076;11.878;2022-12-05T11:44:20;10.80;;;6.23;;
19396;SDS011;9834;48.076;11.878;2022-12-05T11:47:00;9.70;;;6.30;;
19396;SDS011;9834;48.076;11.878;2022-12-05T11:49:43;12.90;;;7.07;;
19396;SDS011;9834;48.076;11.878;2022-12-05T11:52:28;9.23;;;6.63;;
19396;SDS011;9834;48.076;11.878;2022-12-05T11:55:08;13.50;;;7.13;;
19396;SDS011;9834;48.076;11.878;2022-12-05T11:57:45;9.67;;;6.17;;
19396;SDS011;9834;48.076;11.878;2022-12-05T12:00:30;11.23;;;6.73;;
19396;SDS011;9834;48.076;11.878;2022-12-05T12:03:18;10.83;;;6.57;;
19396;SDS011;9834;48.076;11.878;2022-12-05T12:05:55;10.20;;;6.03;;
19396;SDS011;9834;48.076;11.878;2022-12-05T12:08:30;10.60;;;6.73;;
19396;SDS011;9834;48.076;11.878;2022-12-05T12:11:08;9.07;;;5.97;;
19396;SDS011;9834;48.076;11.878;2022-12-05T12:13:46;11.37;;;6.60;;
19396;SDS011;9834;48.076;11.878;2022-12-05T12:16:22;10.13;;;6.87;;
19396;SDS011;9834;48.076;11.878;2022-12-05T12:19:09;8.17;;;6.23;;
19396;SDS011;9834;48.076;11.878;2022-12-05T12:21:52;8.27;;;5.90;;
19396;SDS011;9834;48.076;11.878;2022-12-05T12:24:32;8.90;;;5.80;;
19396;SDS011;9834;48.076;11.878;2022-12-05T12:27:12;6.67;;;5.37;;
19396;SDS011;9834;48.076;11.878;2022-12-05T12:29:55;6.90;;;5.40;;
19396;SDS011;9834;48.076;11.878;2022-12-05T12:32:33;9.47;;;5.80;;
19396;SDS011;9834;48.076;11.878;2022-12-05T12:35:22;11.60;;;6.67;;
19396;SDS011;9834;48.076;11.878;2022-12-05T12:37:57;12.90;;;7.23;;
19396;SDS011;9834;48.076;11.878;2022-12-05T12:40:45;11.57;;;6.67;;
19396;SDS011;9834;48.076;11.878;2022-12-05T12:43:18;8.63;;;6.50;;
19396;SDS011;9834;48.076;11.878;2022-12-05T12:46:05;11.33;;;7.30;;
19396;SDS011;9834;48.076;11.878;2022-12-05T12:48:43;7.63;;;5.50;;
19396;SDS011;9834;48.076;11.878;2022-12-05T12:51:31;7.57;;;6.00;;
19396;SDS011;9834;48.076;11.878;2022-12-05T12:54:01;8.67;;;6.27;;
19396;SDS011;9834;48.076;11.878;2022-12-05T12:56:47;6.43;;;5.20;;
19396;SDS011;9834;48.076;11.878;2022-12-05T12:59:26;5.23;;;4.60;;
19396;SDS011;9834;48.076;11.878;2022-12-05T13:02:03;7.40;;;5.13;;
19396;SDS011;9834;48.076;11.878;2022-12-05T13:04:39;6.43;;;4.90;;
19396;SDS011;9834;48.076;11.878;2022-12-05T13:07:16;9.57;;;5.87;;
19396;SDS011;9834;48.076;11.878;2022-12-05T13:09:49;7.53;;;5.17;;
19396;SDS011;9834;48.076;11.878;2022-12-05T13:12:20;9.23;;;5.90;;
19396;SDS011;9834;48.076;11.878;2022-12-05T13:14:51;11.13;;;5.70;;
19396;SDS011;9834;48.076;11.878;2022-12-05T13:17:20;7.07;;;5.10;;
19396;SDS011;9834;48.076;11.878;2022-12-05T13:19:48;6.43;;;4.87;;
19396;SDS011;9834;48.076;11.878;2022-12-05T13:22:18;6.30;;;4.60;;
19396;SDS011;9834;48.076;11.878;2022-12-05T13:24:48;7.20;;;4.70;;
19396;SDS011;9834;48.076;11.878;2022-12-05T13:27:16;10.63;;;5.73;;
19396;SDS011;9834;48.076;11.878;2022-12-05T13:29:47;9.60;;;6.00;;
19396;SDS011;9834;48.076;11.878;2022-12-05T13:32:24;6.80;;;4.40;;
19396;SDS011;9834;48.076;11.878;2022-12-05T13:34:54;9.20;;;6.20;;
19396;SDS011;9834;48.076;11.878;2022-12-05T13:37:25;7.93;;;6.10;;
19396;SDS011;9834;48.076;11.878;2022-12-05T13:40:25;14.80;;;6.93;;
19396;SDS011;9834;48.076;11.878;2022-12-05T13:43:12;11.37;;;7.57;;
19396;SDS011;9834;48.076;11.878;2022-12-05T13:45:42;8.70;;;6.83;;
19396;SDS011;9834;48.076;11.878;2022-12-05T13:48:26;7.93;;;5.33;;
19396;SDS011;9834;48.076;11.878;2022-12-05T13:50:56;7.53;;;5.67;;
19396;SDS011;9834;48.076;11.878;2022-12-05T13:53:33;6.57;;;5.10;;
19396;SDS011;9834;48.076;11.878;2022-12-05T13:56:04;6.80;;;4.90;;
19396;SDS011;9834;48.076;11.878;2022-12-05T13:58:48;8.57;;;5.83;;
19396;SDS011;9834;48.076;11.878;2022-12-05T14:10:09;4.40;;;3.97;;
19396;SDS011;9834;48.076;11.878;2022-12-05T14:12:51;5.60;;;4.10;;
19396;SDS011;9834;48.076;11.878;2022-12-05T14:15:27;6.00;;;4.23;;
19396;SDS011;9834;48.076;11.878;2022-12-05T14:17:58;6.67;;;3.90;;
19396;SDS011;9834;48.076;11.878;2022-12-05T14:20:35;6.43;;;3.97;;
19396;SDS011;9834;48.076;11.878;2022-12-05T14:23:17;10.03;;;4.20;;
19396;SDS011;9834;48.076;11.878;2022-12-05T14:26:20;6.77;;;4.23;;
19396;SDS011;9834;48.076;11.878;2022-12-05T14:29:02;4.77;;;4.37;;
19396;SDS011;9834;48.076;11.878;2022-12-05T14:31:43;4.13;;;3.73;;
19396;SDS011;9834;48.076;11.878;2022-12-05T14:34:20;8.63;;;4.30;;
19396;SDS011;9834;48.076;11.878;2022-12-05T14:36:53;4.60;;;3.70;;
19396;SDS011;9834;48.076;11.878;2022-12-05T14:39:27;6.23;;;3.53;;
19396;SDS011;9834;48.076;11.878;2022-12-05T14:42:00;4.07;;;3.20;;
19396;SDS011;9834;48.076;11.878;2022-12-05T14:44:29;5.60;;;4.03;;
19396;SDS011;9834;48.076;11.878;2022-12-05T14:46:57;5.93;;;4.33;;
19396;SDS011;9834;48.076;11.878;2022-12-05T14:49:33;6.23;;;4.20;;
19396;SDS011;9834;48.076;11.878;2022-12-05T14:52:17;4.97;;;3.80;;
19396;SDS011;9834;48.076;11.878;2022-12-05T14:54:45;4.73;;;3.37;;
19396;SDS011;9834;48.076;11.878;2022-12-05T14:57:14;6.77;;;4.33;;
19396;SDS011;9834;48.076;11.878;2022-12-05T14:59:44;4.70;;;3.37;;
19396;SDS011;9834;48.076;11.878;2022-12-05T15:02:18;5.40;;;4.03;;
19396;SDS011;9834;48.076;11.878;2022-12-05T15:04:49;6.70;;;3.97;;
19396;SDS011;9834;48.076;11.878;2022-12-05T15:07:21;5.37;;;3.97;;
19396;SDS011;9834;48.076;11.878;2022-12-05T15:09:55;5.73;;;4.77;;
19396;SDS011;9834;48.076;11.878;2022-12-05T15:12:26;10.03;;;5.17;;
19396;SDS011;9834;48.076;11.878;2022-12-05T15:15:09;7.83;;;5.57;;